Time;durP1;ratioP1;P1;durP2;ratioP2;P2;SDS_P1;SDS_P2;PMS_P1;PMS_P2;Temp;Humidity;BMP_temperature;BMP_pressure;BME280_temperature;BME280_humidity;BME280_pressure;Samples;Min_cycle;Max_cycle;Signal;HPM_P1;HPM_P2
2022/11/08 00:02:33;;;;;;;19.17;5.30;;;;;;;10.57;100.00;100977.59;4953165;29;20095;-81
2022/11/08 00:15:54;;;;;;;20.30;5.40;;;;;;;10.25;100.00;100922.75;4952916;29;20081;-81
2022/11/08 00:18:19;;;;;;;14.25;5.22;;;;;;;10.26;100.00;100942.47;4952788;29;20067;-79
2022/11/08 00:20:45;;;;;;;16.60;4.75;;;;;;;10.41;100.00;100960.53;4952246;29;20039;-79
2022/11/08 00:23:10;;;;;;;12.18;4.70;;;;;;;10.43;100.00;100969.88;4952823;29;20113;-83
2022/11/08 00:25:35;;;;;;;16.63;5.13;;;;;;;10.40;100.00;100977.78;4952838;29;20110;-74
2022/11/08 00:28:01;;;;;;;13.65;4.80;;;;;;;10.41;100.00;100973.44;4967449;28;20038;-83
2022/11/08 00:30:26;;;;;;;16.40;4.88;;;;;;;10.31;100.00;100955.91;5013239;28;20118;-82
2022/11/08 00:32:51;;;;;;;13.90;4.72;;;;;;;10.32;100.00;100957.59;5012336;28;20030;-74
2022/11/08 00:35:16;;;;;;;16.88;5.32;;;;;;;10.21;100.00;100944.44;5012811;28;20025;-73
2022/11/08 00:37:42;;;;;;;14.10;5.07;;;;;;;10.31;100.00;100966.25;5012888;28;20030;-82
2022/11/08 00:40:07;;;;;;;16.33;5.20;;;;;;;10.29;100.00;100959.50;5013133;28;20382;-82
2022/11/08 00:42:33;;;;;;;19.90;5.28;;;;;;;10.20;100.00;100944.53;5013303;28;20030;-73
2022/11/08 00:44:58;;;;;;;18.30;5.43;;;;;;;10.28;100.00;100958.69;5014551;28;20033;-76
2022/11/08 00:47:23;;;;;;;13.35;4.78;;;;;;;10.27;100.00;100953.63;5017019;28;20536;-83
2022/11/08 00:49:49;;;;;;;16.55;4.88;;;;;;;10.22;100.00;100950.47;5016663;28;20033;-82
2022/11/08 00:52:14;;;;;;;15.57;5.80;;;;;;;10.19;100.00;100950.63;5017011;28;20049;-73
2022/11/08 00:54:39;;;;;;;18.08;4.75;;;;;;;10.10;100.00;100930.53;5016764;28;20124;-75
2022/11/08 00:57:05;;;;;;;15.70;5.18;;;;;;;10.12;100.00;100936.41;5016901;28;20048;-73
2022/11/08 00:59:30;;;;;;;14.75;5.45;;;;;;;10.08;100.00;100930.63;5016891;28;20523;-79
2022/11/08 01:01:55;;;;;;;16.42;5.10;;;;;;;10.13;100.00;100946.69;5019915;28;20107;-77
2022/11/08 01:04:21;;;;;;;14.35;4.82;;;;;;;9.94;100.00;100909.97;5036485;28;20465;-73
2022/11/08 01:06:47;;;;;;;14.30;5.07;;;;;;;10.01;100.00;100944.78;5036439;28;20358;-73
2022/11/08 01:09:12;;;;;;;15.60;4.80;;;;;;;9.95;100.00;100935.69;5036299;28;20040;-74
2022/11/08 01:11:38;;;;;;;20.23;5.68;;;;;;;9.97;100.00;100943.34;5036757;28;20033;-79
2022/11/08 01:14:04;;;;;;;17.67;5.35;;;;;;;9.82;100.00;100918.41;5036205;28;20381;-74
2022/11/08 01:16:32;;;;;;;15.27;4.70;;;;;;;9.91;100.00;100947.09;5036113;28;20025;-72
2022/11/08 01:18:58;;;;;;;16.20;4.60;;;;;;;9.83;100.00;100943.28;5036240;28;20025;-72
2022/11/08 01:21:24;;;;;;;15.88;5.13;;;;;;;9.79;100.00;100932.31;5036124;28;20393;-73
2022/11/08 01:23:50;;;;;;;14.57;5.40;;;;;;;9.63;100.00;100919.47;5035913;28;20018;-72
2022/11/08 01:26:18;;;;;;;16.48;5.00;;;;;;;9.58;100.00;100915.53;5036038;28;20358;-73
2022/11/08 01:28:44;;;;;;;15.75;5.75;;;;;;;9.69;100.00;100936.34;5036083;28;20500;-73
2022/11/08 01:31:13;;;;;;;18.60;5.82;;;;;;;9.64;100.00;100925.50;5036074;28;20100;-74
2022/11/08 01:33:38;;;;;;;15.63;5.15;;;;;;;9.29;100.00;100884.50;5036178;28;20025;-77
2022/11/08 01:36:13;;;;;;;14.90;5.57;;;;;;;9.53;100.00;100926.06;5035713;28;20116;-77
2022/11/08 01:38:38;;;;;;;14.13;5.15;;;;;;;9.52;100.00;100923.59;5035776;28;20049;-73
2022/11/08 01:41:04;;;;;;;21.52;6.13;;;;;;;9.48;100.00;100917.78;5035760;28;20025;-73
2022/11/08 01:43:29;;;;;;;20.88;6.60;;;;;;;9.46;100.00;100914.47;5035634;28;20029;-75
2022/11/08 01:46:32;;;;;;;16.13;5.78;;;;;;;9.43;100.00;100912.88;5035796;28;20034;-73
2022/11/08 01:49:06;;;;;;;18.17;6.10;;;;;;;9.39;100.00;100911.41;5035753;28;20477;-76
2022/11/08 01:51:40;;;;;;;16.52;5.85;;;;;;;9.39;100.00;100902.84;5035362;28;20025;-74
2022/11/08 01:54:10;;;;;;;22.23;6.40;;;;;;;9.32;100.00;100894.63;5035469;28;20032;-76
2022/11/08 01:56:36;;;;;;;19.25;7.30;;;;;;;9.38;100.00;100890.88;5034526;28;20021;-76
2022/11/08 01:59:06;;;;;;;18.00;6.25;;;;;;;9.38;100.00;100883.97;5035458;28;20118;-79
2022/11/08 02:01:31;;;;;;;17.00;6.13;;;;;;;9.23;100.00;100864.22;5035397;28;20022;-81
2022/11/08 02:03:58;;;;;;;15.63;6.57;;;;;;;9.35;100.00;100873.84;5035152;28;20105;-79
2022/11/08 02:06:24;;;;;;;19.83;5.78;;;;;;;9.28;100.00;100862.22;5035215;28;20458;-74
2022/11/08 02:08:50;;;;;;;17.30;6.18;;;;;;;9.31;100.00;100854.31;5035469;28;20105;-80
2022/11/08 02:11:17;;;;;;;16.70;5.43;;;;;;;9.36;100.00;100860.03;5017039;28;20461;-74
2022/11/08 02:13:42;;;;;;;15.05;5.45;;;;;;;9.43;100.00;100863.91;5035198;28;20031;-79
2022/11/08 02:16:13;;;;;;;15.70;5.65;;;;;;;9.45;100.00;100862.09;5035348;28;20112;-81
2022/11/08 02:18:40;;;;;;;21.92;6.07;;;;;;;9.36;100.00;100842.00;5035115;28;20104;-76
2022/11/08 02:21:16;;;;;;;20.00;5.40;;;;;;;9.46;100.00;100862.94;5035021;28;20025;-79
2022/11/08 02:23:53;;;;;;;15.32;5.53;;;;;;;9.45;100.00;100853.53;5035179;28;20029;-77
2022/11/08 02:26:22;;;;;;;18.70;5.55;;;;;;;9.40;100.00;100834.91;5034900;28;20030;-73
2022/11/08 02:28:48;;;;;;;17.13;5.30;;;;;;;9.38;100.00;100831.59;5035006;28;20100;-74
2022/11/08 02:31:15;;;;;;;17.83;5.32;;;;;;;9.51;100.00;100850.59;5034927;28;20056;-74
2022/11/08 02:33:41;;;;;;;17.00;5.10;;;;;;;9.48;100.00;100833.56;5034770;28;20025;-73
2022/11/08 02:36:09;;;;;;;14.38;5.35;;;;;;;9.51;100.00;100821.41;5034718;28;20033;-73
2022/11/08 02:38:41;;;;;;;13.65;5.50;;;;;;;9.53;100.00;100816.97;5034945;28;20389;-74
2022/11/08 02:41:06;;;;;;;14.00;4.80;;;;;;;9.63;100.00;100833.56;5017604;28;20021;-73
2022/11/08 02:43:31;;;;;;;14.63;5.28;;;;;;;9.63;100.00;100828.41;5034619;28;20119;-73
2022/11/08 02:45:58;;;;;;;14.80;4.57;;;;;;;9.63;100.00;100826.66;5034512;28;20083;-73
2022/11/08 02:48:24;;;;;;;17.77;5.70;;;;;;;9.63;100.00;100826.66;5034833;28;20025;-72
2022/11/08 02:50:49;;;;;;;13.15;4.57;;;;;;;9.57;100.00;100827.03;5034341;28;20385;-73
2022/11/08 02:53:15;;;;;;;14.80;4.53;;;;;;;9.39;100.00;100795.44;5034610;28;20064;-76
2022/11/08 02:55:40;;;;;;;14.23;4.82;;;;;;;9.52;100.00;100810.16;5034030;28;20029;-73
2022/11/08 02:58:06;;;;;;;14.45;4.85;;;;;;;9.47;100.00;100800.97;5034436;28;20477;-74
2022/11/08 03:00:31;;;;;;;10.80;4.28;;;;;;;9.30;100.00;100790.81;5034259;28;20116;-73
2022/11/08 03:02:57;;;;;;;11.40;4.25;;;;;;;9.44;100.00;100802.91;5034180;28;20042;-73
2022/11/08 03:05:24;;;;;;;17.42;5.30;;;;;;;9.30;100.00;100787.41;5034430;28;20037;-73
2022/11/08 03:07:49;;;;;;;13.85;4.43;;;;;;;9.40;100.00;100797.09;5033670;28;20109;-73
2022/11/08 03:10:15;;;;;;;11.35;4.18;;;;;;;9.37;100.00;100793.88;5034257;28;20480;-74
2022/11/08 03:12:41;;;;;;;13.00;4.65;;;;;;;9.34;100.00;100794.03;5034080;28;20366;-74
2022/11/08 03:15:08;;;;;;;14.23;4.72;;;;;;;9.32;100.00;100794.13;5033967;28;20029;-73
2022/11/08 03:17:33;;;;;;;13.73;5.65;;;;;;;9.21;100.00;100770.72;5034383;28;20029;-83
2022/11/08 03:19:58;;;;;;;18.63;5.50;;;;;;;9.19;100.00;100775.16;5034328;28;20112;-80
2022/11/08 03:22:24;;;;;;;18.85;5.53;;;;;;;9.20;100.00;100782.78;5033747;28;20031;-84
2022/11/08 03:24:49;;;;;;;16.95;5.35;;;;;;;9.15;100.00;100774.50;5033949;28;20398;-84
2022/11/08 03:27:17;;;;;;;24.63;6.38;;;;;;;9.09;100.00;100764.53;5033905;28;20469;-79
2022/11/08 03:29:43;;;;;;;16.45;5.70;;;;;;;9.10;100.00;100765.38;5033727;28;20025;-83
2022/11/08 03:32:09;;;;;;;18.15;5.50;;;;;;;9.07;100.00;100760.41;5033706;28;20465;-79
2022/11/08 03:34:34;;;;;;;17.00;5.90;;;;;;;8.81;100.00;100718.94;5015626;28;20068;-78
2022/11/08 03:36:59;;;;;;;14.73;6.05;;;;;;;8.96;100.00;100744.75;5033564;28;20062;-79
2022/11/08 03:39:24;;;;;;;20.38;5.45;;;;;;;8.81;100.00;100734.38;5033785;28;20048;-82
2022/11/08 03:41:50;;;;;;;17.08;5.53;;;;;;;8.87;100.00;100735.78;5033617;28;20112;-82
2022/11/08 03:44:15;;;;;;;19.40;5.53;;;;;;;8.62;100.00;100698.56;5033572;28;20469;-79
2022/11/08 03:46:40;;;;;;;21.75;6.22;;;;;;;8.81;100.00;100718.13;5032284;28;20464;-82
2022/11/08 03:49:06;;;;;;;19.08;5.32;;;;;;;8.87;100.00;100721.16;5033464;28;20104;-81
2022/11/08 03:51:31;;;;;;;14.85;4.75;;;;;;;8.83;100.00;100718.84;5033282;28;20025;-83
2022/11/08 03:53:56;;;;;;;11.40;4.60;;;;;;;8.81;100.00;100712.97;5033192;28;20026;-74
2022/11/08 03:56:22;;;;;;;14.35;5.95;;;;;;;8.80;100.00;100709.56;5033482;28;20029;-83
2022/11/08 03:58:47;;;;;;;16.98;4.75;;;;;;;8.80;100.00;100707.00;5050753;28;20033;-80
2022/11/08 04:01:12;;;;;;;12.57;4.30;;;;;;;8.78;100.00;100693.38;5053188;28;20476;-83
2022/11/08 04:03:38;;;;;;;27.58;5.07;;;;;;;8.86;100.00;100695.50;5052641;28;20057;-82
2022/11/08 04:06:03;;;;;;;15.07;5.05;;;;;;;8.87;100.00;100703.16;5053328;28;20041;-73
2022/11/08 04:08:29;;;;;;;13.38;5.18;;;;;;;8.87;100.00;100690.28;5052989;28;20048;-83
2022/11/08 04:10:55;;;;;;;17.75;5.18;;;;;;;8.89;100.00;100688.44;5053071;28;20060;-80
2022/11/08 04:16:06;;;;;;;19.50;5.60;;;;;;;8.67;100.00;100641.69;5053045;28;20496;-73
2022/11/08 04:21:18;;;;;;;14.02;5.57;;;;;;;8.96;100.00;100675.22;5053157;28;20039;-83
2022/11/08 04:23:44;;;;;;;14.40;5.40;;;;;;;8.96;100.00;100664.91;5052806;28;20055;-78
2022/11/08 04:26:10;;;;;;;13.10;5.25;;;;;;;9.02;100.00;100667.09;5053011;28;20426;-77
2022/11/08 04:28:38;;;;;;;13.88;5.07;;;;;;;8.98;100.00;100661.31;5052875;28;20102;-77
2022/11/08 04:31:05;;;;;;;13.93;4.82;;;;;;;9.02;100.00;100660.19;5052908;28;20032;-81
2022/11/08 04:33:31;;;;;;;14.95;4.72;;;;;;;8.97;100.00;100654.50;5052787;28;20040;-80
2022/11/08 04:36:01;;;;;;;14.00;4.38;;;;;;;9.02;100.00;100657.63;5052759;28;20033;-77
2022/11/08 04:38:29;;;;;;;12.00;4.47;;;;;;;8.99;100.00;100639.78;5052583;28;20111;-75
2022/11/08 04:41:01;;;;;;;12.48;4.93;;;;;;;8.89;100.00;100634.34;5052791;28;20033;-73
2022/11/08 04:43:27;;;;;;;15.82;4.50;;;;;;;9.03;100.00;100658.47;5052765;28;20029;-79
2022/11/08 04:46:01;;;;;;;14.27;4.85;;;;;;;8.98;100.00;100639.88;5052814;28;20029;-73
2022/11/08 04:48:26;;;;;;;10.68;4.32;;;;;;;8.99;100.00;100654.41;5052758;28;20121;-77
2022/11/08 04:50:51;;;;;;;14.38;4.47;;;;;;;8.96;100.00;100649.47;5052726;28;20057;-77
2022/11/08 04:53:17;;;;;;;12.40;4.38;;;;;;;8.80;100.00;100626.34;5052708;28;20374;-77
2022/11/08 04:55:42;;;;;;;10.52;4.47;;;;;;;8.83;100.00;100626.97;5034654;28;20075;-73
2022/11/08 04:58:07;;;;;;;14.13;4.53;;;;;;;8.76;100.00;100612.00;5052579;28;20067;-79
2022/11/08 05:00:33;;;;;;;9.75;4.32;;;;;;;8.84;100.00;100614.94;5052558;28;20029;-76
2022/11/08 05:03:01;;;;;;;11.30;3.60;;;;;;;8.80;100.00;100616.88;5052559;28;20484;-79
2022/11/08 05:05:26;;;;;;;15.27;4.30;;;;;;;8.84;100.00;100622.66;5052557;28;20373;-79
2022/11/08 05:07:53;;;;;;;9.00;4.10;;;;;;;8.82;100.00;100622.75;5052504;28;20048;-79
2022/11/08 05:10:18;;;;;;;9.85;4.20;;;;;;;8.79;100.00;100611.81;5052342;28;20111;-80
2022/11/08 05:12:43;;;;;;;13.07;4.40;;;;;;;8.76;100.00;100607.69;5052409;28;20032;-80
2022/11/08 05:15:09;;;;;;;13.57;4.10;;;;;;;8.61;100.00;100582.81;5052541;28;20029;-73
2022/11/08 05:17:34;;;;;;;12.68;4.00;;;;;;;8.71;100.00;100606.28;5052473;28;20024;-74
2022/11/08 05:25:27;;;;;;;8.85;4.13;;;;;;;8.69;100.00;100602.97;5052418;28;20044;-73
2022/11/08 05:27:53;;;;;;;13.02;3.72;;;;;;;8.67;100.00;100608.22;5052393;28;20029;-72
2022/11/08 05:30:18;;;;;;;11.82;3.38;;;;;;;8.65;100.00;100609.19;5052930;28;20040;-73
2022/11/08 05:32:43;;;;;;;12.20;4.13;;;;;;;8.65;100.00;100599.72;5055881;28;20441;-72
2022/11/08 05:35:09;;;;;;;7.28;3.92;;;;;;;8.66;100.00;100596.28;5055807;28;20377;-73
2022/11/08 05:37:34;;;;;;;8.45;3.67;;;;;;;8.58;100.00;100586.41;5055818;28;20103;-73
2022/11/08 05:39:59;;;;;;;12.90;3.78;;;;;;;8.64;100.00;100580.06;5055692;28;20074;-73
2022/11/08 05:42:25;;;;;;;11.43;3.92;;;;;;;8.65;100.00;100584.28;5055616;28;20402;-73
2022/11/08 05:44:50;;;;;;;10.85;3.85;;;;;;;8.53;100.00;100567.81;5055657;28;20108;-73
2022/11/08 05:47:15;;;;;;;11.07;3.60;;;;;;;8.47;100.00;100564.81;5055634;28;20029;-72
2022/11/08 05:49:40;;;;;;;7.93;3.53;;;;;;;8.63;100.00;100581.81;5055690;28;20035;-74
2022/11/08 05:52:06;;;;;;;10.07;3.97;;;;;;;8.66;100.00;100587.72;5055671;28;20021;-74
2022/11/08 05:54:31;;;;;;;7.03;3.08;;;;;;;8.58;100.00;100565.00;5055431;28;20126;-73
2022/11/08 05:56:56;;;;;;;10.30;3.42;;;;;;;8.67;100.00;100584.22;5055179;28;20025;-73
2022/11/08 05:59:22;;;;;;;8.85;3.35;;;;;;;8.70;100.00;100584.03;5055588;28;20024;-72
2022/11/08 06:01:47;;;;;;;10.80;3.80;;;;;;;8.64;100.00;100564.63;5055453;28;20433;-76
2022/11/08 06:04:12;;;;;;;11.23;3.95;;;;;;;8.76;100.00;100571.63;5055081;28;20135;-72
2022/11/08 06:06:37;;;;;;;12.30;3.55;;;;;;;8.74;100.00;100573.44;5055350;28;20029;-73
2022/11/08 06:09:03;;;;;;;10.68;3.53;;;;;;;8.78;100.00;100576.69;5055286;28;20453;-73
2022/11/08 06:11:28;;;;;;;9.95;3.95;;;;;;;8.70;100.00;100556.53;5054843;28;20067;-74
2022/11/08 06:13:54;;;;;;;8.20;3.50;;;;;;;8.80;100.00;100567.13;5055106;28;20113;-73
2022/11/08 06:16:21;;;;;;;9.57;3.42;;;;;;;8.79;100.00;100573.19;5055020;28;20101;-73
2022/11/08 06:18:47;;;;;;;10.93;3.72;;;;;;;8.72;100.00;100567.56;5055183;28;20029;-74
2022/11/08 06:21:17;;;;;;;12.63;4.25;;;;;;;8.76;100.00;100566.50;5054979;28;20032;-73
2022/11/08 06:23:43;;;;;;;10.27;3.85;;;;;;;8.80;100.00;100567.94;5055129;28;20473;-73
2022/11/08 06:26:08;;;;;;;12.00;3.63;;;;;;;8.82;100.00;100567.84;5054648;28;20090;-72
2022/11/08 06:28:35;;;;;;;7.47;3.08;;;;;;;8.85;100.00;100573.66;5054717;28;20028;-76
2022/11/08 06:31:01;;;;;;;8.60;3.60;;;;;;;8.85;100.00;100572.84;5054827;28;20057;-74
2022/11/08 06:33:27;;;;;;;10.55;3.65;;;;;;;8.76;100.00;100560.50;5054763;28;20068;-73
2022/11/08 06:35:52;;;;;;;21.50;4.32;;;;;;;8.76;100.00;100569.06;5054928;28;20061;-73
2022/11/08 06:38:17;;;;;;;9.20;3.80;;;;;;;8.84;100.00;100582.28;5054827;28;20416;-75
2022/11/08 06:40:43;;;;;;;11.80;4.05;;;;;;;8.82;100.00;100578.16;5054610;28;20341;-73
2022/11/08 06:43:12;;;;;;;9.48;3.22;;;;;;;8.71;100.00;100562.53;5035964;28;20044;-73
2022/11/08 06:45:38;;;;;;;10.63;4.13;;;;;;;8.76;100.00;100569.06;5054610;28;20025;-72
2022/11/08 06:48:05;;;;;;;8.35;3.90;;;;;;;8.89;100.00;100588.00;5054679;28;20035;-73
2022/11/08 06:50:32;;;;;;;10.05;3.92;;;;;;;8.89;100.00;100582.03;5054356;28;20028;-73
2022/11/08 06:53:00;;;;;;;8.63;3.42;;;;;;;8.89;100.00;100579.44;5054286;28;20025;-74
2022/11/08 06:55:25;;;;;;;9.27;3.90;;;;;;;8.79;100.00;100561.16;5054159;28;20394;-78
2022/11/08 06:57:51;;;;;;;9.50;3.72;;;;;;;8.85;100.00;100571.09;5054372;28;20029;-73
2022/11/08 07:00:16;;;;;;;8.95;4.05;;;;;;;8.89;100.00;100575.13;5054245;28;20103;-73
2022/11/08 07:02:43;;;;;;;9.88;3.53;;;;;;;8.90;100.00;100581.94;5054276;28;20052;-77
2022/11/08 07:05:09;;;;;;;10.45;3.78;;;;;;;8.81;100.00;100561.88;5036087;28;20558;-74
2022/11/08 07:07:35;;;;;;;10.00;3.70;;;;;;;8.85;100.00;100573.66;5054038;28;20059;-73
2022/11/08 07:10:00;;;;;;;10.82;3.53;;;;;;;8.91;100.00;100582.75;5053976;28;20468;-73
2022/11/08 07:12:26;;;;;;;10.98;3.88;;;;;;;8.93;100.00;100587.81;5036017;28;20461;-75
2022/11/08 07:14:51;;;;;;;12.10;4.30;;;;;;;8.87;100.00;100589.84;5035479;28;20135;-73
2022/11/08 07:17:16;;;;;;;10.55;4.10;;;;;;;8.92;100.00;100592.13;5053896;28;20025;-77
2022/11/08 07:19:42;;;;;;;10.18;3.90;;;;;;;8.98;100.00;100591.78;5054048;28;20432;-74
2022/11/08 07:22:07;;;;;;;16.20;5.18;;;;;;;9.04;100.00;100598.28;5053689;28;20025;-85
2022/11/08 07:24:32;;;;;;;13.63;4.15;;;;;;;9.08;99.84;100599.78;5053832;28;20033;-84
2022/11/08 07:26:57;;;;;;;11.68;4.63;;;;;;;9.10;99.83;100590.22;5053649;28;20114;-85
2022/11/08 07:29:23;;;;;;;10.48;4.13;;;;;;;8.81;99.26;100525.84;5053841;28;20031;-85
2022/11/08 07:31:48;;;;;;;9.07;3.80;;;;;;;9.06;99.59;100563.00;5053813;28;20404;-77
2022/11/08 07:34:13;;;;;;;11.23;4.55;;;;;;;9.19;99.04;100582.75;5054034;28;20159;-80
2022/11/08 07:36:39;;;;;;;12.10;4.60;;;;;;;9.23;98.86;100574.81;5053767;28;20044;-83
2022/11/08 07:39:04;;;;;;;10.80;3.88;;;;;;;9.25;98.70;100578.97;5053584;28;20022;-84
2022/11/08 07:41:29;;;;;;;12.60;4.10;;;;;;;9.27;98.59;100566.81;5053195;28;20151;-84
2022/11/08 07:43:54;;;;;;;11.07;4.32;;;;;;;9.30;98.68;100568.38;5035750;28;20035;-85
2022/11/08 07:46:20;;;;;;;11.07;4.45;;;;;;;9.30;98.09;100561.47;5053460;28;20025;-73
2022/11/08 07:48:45;;;;;;;11.35;4.03;;;;;;;9.36;97.75;100571.41;5053419;28;20021;-85
2022/11/08 07:51:10;;;;;;;11.40;3.95;;;;;;;9.38;97.60;100574.72;5053427;28;20472;-85
2022/11/08 07:53:36;;;;;;;12.85;4.50;;;;;;;9.42;97.18;100573.59;5053138;28;20021;-84
2022/11/08 07:56:01;;;;;;;16.50;5.32;;;;;;;9.46;97.10;100564.75;5052631;28;20029;-85
2022/11/08 07:58:26;;;;;;;12.85;3.90;;;;;;;9.47;97.02;100552.69;5053220;28;20021;-73
2022/11/08 08:00:52;;;;;;;14.48;4.13;;;;;;;9.49;96.38;100556.00;5052912;28;20071;-85
2022/11/08 08:03:17;;;;;;;12.75;3.78;;;;;;;9.58;96.52;100565.75;5053018;28;20029;-85
2022/11/08 08:05:44;;;;;;;10.30;4.30;;;;;;;9.68;96.00;100563.41;5053353;28;20095;-84
2022/11/08 08:08:11;;;;;;;13.27;4.15;;;;;;;9.73;95.70;100575.09;5053138;28;20469;-85
2022/11/08 08:10:38;;;;;;;9.23;3.70;;;;;;;9.79;95.44;100566.13;5053041;28;20107;-85
2022/11/08 08:13:05;;;;;;;9.93;3.90;;;;;;;9.77;95.49;100555.09;5052842;28;20525;-85
2022/11/08 08:15:31;;;;;;;11.48;4.53;;;;;;;9.88;94.59;100554.41;5052938;28;20056;-84
2022/11/08 08:17:58;;;;;;;12.27;4.20;;;;;;;10.02;93.99;100565.47;5053001;28;20060;-84
2022/11/08 08:20:24;;;;;;;11.88;3.92;;;;;;;10.12;93.16;100570.84;5053106;28;20051;-81
2022/11/08 08:22:51;;;;;;;11.75;4.22;;;;;;;10.21;92.61;100572.00;5053030;28;20029;-83
2022/11/08 08:25:17;;;;;;;11.65;4.35;;;;;;;10.25;92.29;100571.75;5052825;28;20017;-73
2022/11/08 08:27:53;;;;;;;17.92;4.28;;;;;;;10.37;92.11;100575.28;5052642;28;20057;-82
2022/11/08 08:30:20;;;;;;;10.13;4.13;;;;;;;10.34;90.79;100558.25;5052709;28;20026;-84
2022/11/08 08:32:46;;;;;;;11.77;3.55;;;;;;;10.42;89.85;100568.06;5052824;28;20100;-84
2022/11/08 08:35:12;;;;;;;9.35;3.58;;;;;;;10.60;90.33;100573.75;5052672;28;20190;-84
2022/11/08 08:37:37;;;;;;;7.57;3.00;;;;;;;10.56;89.08;100575.72;5052710;28;20104;-85
2022/11/08 08:40:04;;;;;;;9.23;3.35;;;;;;;10.58;88.83;100576.44;5052702;28;20140;-80
2022/11/08 08:42:32;;;;;;;8.70;2.88;;;;;;;10.81;87.59;100598.13;5052580;28;20059;-73
2022/11/08 08:44:57;;;;;;;9.70;3.53;;;;;;;10.93;87.58;100599.06;5052432;28;20044;-82
2022/11/08 08:47:22;;;;;;;10.02;3.17;;;;;;;11.02;86.00;100585.53;5052809;28;20457;-80
2022/11/08 08:49:48;;;;;;;7.97;2.90;;;;;;;11.14;85.34;100579.50;5052669;28;20032;-84
2022/11/08 08:52:13;;;;;;;8.35;3.00;;;;;;;11.23;85.07;100579.81;5052696;28;20108;-86
2022/11/08 08:54:38;;;;;;;8.68;2.88;;;;;;;11.33;83.50;100578.22;5052605;28;20108;-76
2022/11/08 08:57:04;;;;;;;6.07;2.40;;;;;;;11.32;84.04;100546.38;5052730;28;20107;-73
2022/11/08 08:59:29;;;;;;;7.55;2.58;;;;;;;11.44;84.02;100552.44;5034692;28;20031;-83
2022/11/08 09:01:54;;;;;;;8.20;3.15;;;;;;;11.56;83.30;100567.06;5052414;28;20109;-84
2022/11/08 09:04:19;;;;;;;10.40;3.03;;;;;;;11.68;81.82;100561.00;5052314;28;20049;-82
2022/11/08 09:06:45;;;;;;;8.73;3.00;;;;;;;11.76;81.90;100561.31;5055097;28;20403;-85
2022/11/08 09:09:10;;;;;;;9.05;2.80;;;;;;;11.51;82.15;100503.72;5056432;28;20066;-73
2022/11/08 09:11:35;;;;;;;8.10;2.88;;;;;;;11.92;82.09;100557.66;5056491;28;20025;-86
2022/11/08 09:14:01;;;;;;;8.82;3.17;;;;;;;11.97;81.36;100553.78;5055870;28;20029;-83
2022/11/08 09:16:26;;;;;;;5.75;2.90;;;;;;;12.01;80.45;100556.97;5056000;28;20040;-74
2022/11/08 09:18:51;;;;;;;10.52;2.85;;;;;;;12.07;81.21;100552.16;5056141;28;20031;-76
2022/11/08 09:21:16;;;;;;;6.38;2.58;;;;;;;12.14;81.10;100562.88;5056286;28;20071;-75
2022/11/08 09:23:42;;;;;;;11.63;2.80;;;;;;;12.13;80.04;100545.72;5056110;28;20678;-72
2022/11/08 09:26:07;;;;;;;9.27;3.20;;;;;;;12.29;79.43;100556.59;5055631;28;20492;-72
2022/11/08 09:28:34;;;;;;;6.95;2.88;;;;;;;12.39;78.91;100553.28;5055515;28;20017;-74
2022/11/08 09:31:05;;;;;;;9.25;2.65;;;;;;;12.38;78.57;100542.09;5055871;28;20025;-78
2022/11/08 09:33:30;;;;;;;7.63;3.00;;;;;;;12.45;77.63;100552.84;5056145;28;20332;-83
2022/11/08 09:35:57;;;;;;;6.65;3.17;;;;;;;12.49;76.66;100554.28;5055901;28;20108;-82
2022/11/08 09:38:23;;;;;;;7.22;2.80;;;;;;;12.29;77.87;100520.34;5055897;28;20052;-84
2022/11/08 09:40:58;;;;;;;7.80;3.00;;;;;;;12.55;78.77;100567.56;5055645;28;20060;-86
2022/11/08 09:43:29;;;;;;;8.00;2.92;;;;;;;12.60;77.32;100560.28;5055536;28;20438;-84
2022/11/08 09:45:56;;;;;;;5.32;2.40;;;;;;;12.62;76.97;100557.59;5055514;28;20024;-82
2022/11/08 09:48:35;;;;;;;8.88;3.20;;;;;;;12.75;77.17;100558.28;5055833;28;20036;-75
2022/11/08 09:51:21;;;;;;;7.28;2.80;;;;;;;12.83;77.42;100530.03;5037753;28;20404;-81
2022/11/08 09:53:57;;;;;;;8.23;3.03;;;;;;;12.93;75.84;100540.50;5054393;28;20341;-77
2022/11/08 09:56:30;;;;;;;8.20;2.70;;;;;;;13.00;75.52;100559.00;5055301;28;20033;-82
2022/11/08 09:59:02;;;;;;;10.65;3.00;;;;;;;12.87;75.65;100546.97;5055382;28;20021;-82
2022/11/08 10:01:32;;;;;;;11.85;2.80;;;;;;;12.98;75.29;100558.28;5055244;28;20029;-79
2022/11/08 10:04:18;;;;;;;9.57;2.70;;;;;;;12.94;74.82;100555.13;5054981;28;20068;-79
2022/11/08 10:06:55;;;;;;;6.13;2.53;;;;;;;12.97;75.57;100562.66;5055173;28;20464;-81
2022/11/08 10:09:58;;;;;;;4.97;2.45;;;;;;;13.04;76.32;100570.78;5055050;28;20033;-80
2022/11/08 10:12:40;;;;;;;8.95;2.90;;;;;;;13.08;74.22;100565.25;5054971;28;20078;-75
2022/11/08 10:15:20;;;;;;;10.13;2.58;;;;;;;13.15;75.04;100573.38;5054846;28;20025;-76
2022/11/08 10:18:16;;;;;;;6.22;2.20;;;;;;;13.12;76.36;100558.06;5054158;28;20029;-76
2022/11/08 10:20:56;;;;;;;5.30;2.63;;;;;;;13.40;74.82;100573.13;5055014;28;20025;-77
2022/11/08 10:23:38;;;;;;;9.05;2.97;;;;;;;13.43;75.00;100561.69;5054907;28;20021;-76
2022/11/08 10:26:41;;;;;;;7.13;2.40;;;;;;;13.70;74.00;100582.03;5036857;28;20170;-77
2022/11/08 10:29:12;;;;;;;6.40;2.60;;;;;;;13.72;71.98;100567.16;5054968;28;20059;-76
2022/11/08 10:31:40;;;;;;;6.93;2.63;;;;;;;13.90;72.25;100588.22;5054764;28;20433;-76
2022/11/08 10:34:16;;;;;;;9.60;2.85;;;;;;;13.89;72.28;100579.59;5054456;28;20491;-75
2022/11/08 10:36:47;;;;;;;6.57;2.45;;;;;;;13.92;72.56;100586.31;5054690;28;20127;-77
2022/11/08 10:39:22;;;;;;;5.97;2.50;;;;;;;13.89;71.55;100576.19;5051966;28;20029;-72
2022/11/08 10:42:08;;;;;;;6.13;2.72;;;;;;;13.88;72.07;100590.13;5034752;28;20284;-75
2022/11/08 10:44:35;;;;;;;7.55;3.00;;;;;;;13.78;71.25;100585.66;5034495;28;20033;-75
2022/11/08 10:47:03;;;;;;;7.43;2.50;;;;;;;13.64;70.29;100572.94;5034450;28;20057;-75
2022/11/08 10:49:31;;;;;;;8.55;2.80;;;;;;;13.59;71.04;100548.34;5034604;28;20030;-75
2022/11/08 10:52:00;;;;;;;6.13;2.50;;;;;;;13.82;70.42;100583.63;5034465;28;20045;-76
2022/11/08 10:54:42;;;;;;;7.43;2.38;;;;;;;13.66;70.92;100537.31;5034322;28;20048;-75
2022/11/08 10:57:10;;;;;;;7.57;2.65;;;;;;;13.92;71.07;100566.38;5034411;28;20109;-74
2022/11/08 10:59:35;;;;;;;5.72;2.30;;;;;;;14.00;70.23;100561.38;5034031;28;20465;-76
2022/11/08 11:02:01;;;;;;;6.00;2.67;;;;;;;13.95;70.40;100544.53;5016365;28;20041;-74
2022/11/08 11:04:29;;;;;;;8.50;2.60;;;;;;;14.14;70.38;100555.06;5034025;28;20077;-75
2022/11/08 11:07:05;;;;;;;10.15;3.00;;;;;;;14.18;70.78;100566.03;5034189;28;20047;-76
2022/11/08 11:09:31;;;;;;;7.28;2.97;;;;;;;14.14;69.77;100552.44;5034103;28;20034;-76
2022/11/08 11:11:58;;;;;;;7.55;2.72;;;;;;;14.07;69.54;100553.94;5033937;28;20385;-76
2022/11/08 11:14:24;;;;;;;5.70;2.42;;;;;;;13.91;69.51;100523.19;5034406;28;20381;-78
2022/11/08 11:17:04;;;;;;;11.20;2.97;;;;;;;14.05;70.65;100541.03;5034012;28;20022;-75
2022/11/08 11:19:30;;;;;;;7.17;2.27;;;;;;;14.02;70.26;100543.09;5033717;28;20086;-75
2022/11/08 11:22:06;;;;;;;7.38;2.95;;;;;;;13.98;70.07;100552.09;5033876;28;20034;-77
2022/11/08 11:24:45;;;;;;;7.38;2.70;;;;;;;13.95;69.70;100541.94;5033855;28;20033;-76
2022/11/08 11:27:47;;;;;;;10.88;2.85;;;;;;;13.99;70.54;100538.97;5033793;28;20588;-76
2022/11/08 11:30:29;;;;;;;5.63;2.85;;;;;;;13.93;70.65;100510.91;4953268;28;20054;-76
2022/11/08 11:33:12;;;;;;;6.82;2.65;;;;;;;14.06;69.91;100521.13;4953322;29;20490;-76
2022/11/08 11:35:44;;;;;;;6.82;2.63;;;;;;;14.18;70.70;100514.09;4953501;29;20121;-77
2022/11/08 11:38:37;;;;;;;7.55;2.60;;;;;;;14.18;70.46;100501.09;4953488;29;20031;-76
2022/11/08 11:46:19;;;;;;;11.65;3.10;;;;;;;14.29;69.80;100519.22;5148484;23;20476;-76
2022/11/08 11:51:24;;;;;;;7.70;2.78;;;;;;;14.52;69.24;100514.72;5484624;23;20104;-84
2022/11/08 11:53:50;;;;;;;10.70;3.17;;;;;;;14.55;69.25;100491.91;5013715;28;20097;-83